Time;durP1;ratioP1;P1;durP2;ratioP2;P2;SDS_P1;SDS_P2;PMS_P1;PMS_P2;Temp;Humidity;BMP_temperature;BMP_pressure;BME280_temperature;BME280_humidity;BME280_pressure;Samples;Min_cycle;Max_cycle;Signal;HPM_P1;HPM_P2
2024/01/15 00:01:36;;;;;;;0.90;0.90;;;-5.20;99.90;;;;;;5033731;28;20198;-78
2024/01/15 00:04:02;;;;;;;0.80;0.80;;;-5.20;99.90;;;;;;5033764;28;20341;-78
2024/01/15 00:06:28;;;;;;;0.80;0.80;;;-5.30;99.90;;;;;;5033373;28;20293;-78
2024/01/15 00:08:54;;;;;;;0.90;0.90;;;-5.30;99.90;;;;;;5034861;28;20190;-78
2024/01/15 00:11:26;;;;;;;0.80;0.80;;;-5.30;99.90;;;;;;5034533;28;20341;-79
2024/01/15 00:13:58;;;;;;;1.00;1.00;;;-5.30;99.90;;;;;;5017109;28;20669;-78
2024/01/15 00:16:24;;;;;;;0.80;0.80;;;-5.30;99.90;;;;;;5034584;28;20214;-78
2024/01/15 00:18:52;;;;;;;0.90;0.90;;;-5.30;99.90;;;;;;5034579;28;20233;-77
2024/01/15 00:21:20;;;;;;;0.77;0.77;;;-5.40;99.90;;;;;;5016435;28;20272;-78
2024/01/15 00:23:46;;;;;;;0.90;0.90;;;-5.30;99.90;;;;;;5017241;28;20293;-78
2024/01/15 00:26:18;;;;;;;0.90;0.90;;;-5.30;99.90;;;;;;5033157;28;20305;-77
2024/01/15 00:28:44;;;;;;;0.87;0.87;;;-5.40;99.90;;;;;;5016499;28;20217;-78
2024/01/15 00:31:09;;;;;;;0.83;0.83;;;-5.40;99.90;;;;;;5016904;28;20670;-77
2024/01/15 00:33:45;;;;;;;0.90;0.90;;;-5.40;99.90;;;;;;5016539;28;20648;-78
2024/01/15 00:36:10;;;;;;;0.83;0.83;;;-5.40;99.90;;;;;;5034906;28;20283;-77
2024/01/15 00:38:36;;;;;;;1.00;1.00;;;-5.40;99.90;;;;;;5036204;28;20297;-77
2024/01/15 00:41:02;;;;;;;1.07;1.07;;;-5.50;99.90;;;;;;5054382;28;20582;-77
2024/01/15 00:43:28;;;;;;;0.80;0.80;;;-5.40;99.90;;;;;;5036219;28;20327;-78
2024/01/15 00:45:54;;;;;;;0.90;0.90;;;-5.40;99.90;;;;;;5054276;28;20552;-77
2024/01/15 00:48:19;;;;;;;0.80;0.80;;;-5.40;99.90;;;;;;5036274;28;20654;-79
2024/01/15 00:50:45;;;;;;;0.80;0.80;;;-5.50;99.90;;;;;;5036555;28;20765;-79
2024/01/15 00:53:11;;;;;;;0.80;0.80;;;-5.50;99.90;;;;;;5036101;28;20225;-79
2024/01/15 00:55:37;;;;;;;0.90;0.90;;;-5.50;99.90;;;;;;5053932;28;20225;-80
2024/01/15 00:58:03;;;;;;;1.03;1.03;;;-5.50;99.90;;;;;;5036351;28;20190;-81
2024/01/15 01:00:29;;;;;;;0.90;0.90;;;-5.50;99.90;;;;;;5035826;28;20205;-81
2024/01/15 01:02:55;;;;;;;0.80;0.80;;;-5.60;99.90;;;;;;5053861;28;20250;-80
2024/01/15 01:05:20;;;;;;;1.00;1.00;;;-5.60;99.90;;;;;;5035444;28;20355;-80
2024/01/15 01:07:46;;;;;;;0.90;0.90;;;-5.60;99.90;;;;;;5019887;28;20220;-81
2024/01/15 01:10:12;;;;;;;0.90;0.90;;;-5.70;99.90;;;;;;5015822;28;20268;-80
2024/01/15 01:12:37;;;;;;;1.00;1.00;;;-5.70;99.90;;;;;;5033512;28;20658;-82
2024/01/15 01:15:03;;;;;;;0.90;0.90;;;-5.70;99.90;;;;;;5016359;28;20194;-80
2024/01/15 01:17:30;;;;;;;0.80;0.80;;;-5.70;99.90;;;;;;5015753;28;20209;-80
2024/01/15 01:19:56;;;;;;;0.90;0.90;;;-5.70;99.90;;;;;;5033411;28;20190;-80
2024/01/15 01:22:21;;;;;;;0.90;0.90;;;-5.70;99.90;;;;;;5033441;28;20202;-80
2024/01/15 01:24:47;;;;;;;0.90;0.90;;;-5.70;99.90;;;;;;5033573;28;20194;-80
2024/01/15 01:27:13;;;;;;;0.90;0.90;;;-5.80;99.90;;;;;;5033414;28;20260;-80
2024/01/15 01:29:38;;;;;;;0.90;0.90;;;-5.80;99.90;;;;;;5033282;28;20236;-80
2024/01/15 01:32:04;;;;;;;0.90;0.90;;;-5.80;99.90;;;;;;5033257;28;20205;-80
2024/01/15 01:34:32;;;;;;;0.90;0.90;;;-5.90;99.90;;;;;;5032301;28;20228;-80
2024/01/15 01:36:58;;;;;;;0.83;0.83;;;-5.90;99.90;;;;;;5032138;28;20234;-80
2024/01/15 01:39:24;;;;;;;0.90;0.90;;;-5.90;99.90;;;;;;5032550;28;20225;-80
2024/01/15 01:41:49;;;;;;;0.90;0.90;;;-6.00;99.90;;;;;;5032428;28;20198;-81
2024/01/15 01:44:15;;;;;;;0.90;0.90;;;-6.00;99.90;;;;;;5032198;28;20674;-80
2024/01/15 01:46:41;;;;;;;0.90;0.90;;;-6.00;99.90;;;;;;5032020;28;20271;-79
2024/01/15 01:49:09;;;;;;;0.97;0.97;;;-6.10;99.90;;;;;;5033102;28;20198;-80
2024/01/15 01:51:39;;;;;;;0.90;0.90;;;-6.10;99.90;;;;;;5033108;28;20190;-79
2024/01/15 01:54:06;;;;;;;0.97;0.97;;;-6.10;99.90;;;;;;5033214;28;20212;-79
2024/01/15 01:56:33;;;;;;;0.90;0.90;;;-6.10;99.90;;;;;;5031709;28;20202;-80
2024/01/15 01:59:00;;;;;;;0.80;0.80;;;-6.10;99.90;;;;;;5034027;28;20194;-80
2024/01/15 02:01:26;;;;;;;0.90;0.90;;;-6.20;99.90;;;;;;5032758;28;20209;-80
2024/01/15 02:03:52;;;;;;;0.90;0.90;;;-6.20;99.90;;;;;;5033428;28;20225;-80
2024/01/15 02:06:18;;;;;;;0.80;0.80;;;-6.20;99.90;;;;;;5015688;28;20249;-79
2024/01/15 02:08:44;;;;;;;0.97;0.97;;;-6.20;99.90;;;;;;5015608;28;20194;-79
2024/01/15 02:11:10;;;;;;;0.90;0.90;;;-6.20;99.90;;;;;;5015448;28;20329;-80
2024/01/15 02:13:36;;;;;;;0.90;0.90;;;-6.20;99.90;;;;;;5016026;28;20233;-80
2024/01/15 02:16:02;;;;;;;0.80;0.80;;;-6.30;99.90;;;;;;5016157;28;20336;-80
2024/01/15 02:18:27;;;;;;;0.90;0.90;;;-6.30;99.90;;;;;;5033086;28;20202;-79
2024/01/15 02:20:53;;;;;;;0.90;0.90;;;-6.30;99.90;;;;;;5015092;28;20210;-79
2024/01/15 02:23:19;;;;;;;0.90;0.90;;;-6.30;99.90;;;;;;5032656;28;20198;-80
2024/01/15 02:25:46;;;;;;;0.90;0.90;;;-6.30;99.90;;;;;;5032991;28;20210;-80
2024/01/15 02:28:14;;;;;;;0.90;0.90;;;-6.30;99.90;;;;;;5015444;28;20692;-80
2024/01/15 02:30:41;;;;;;;0.90;0.90;;;-6.40;99.90;;;;;;5032737;28;20559;-80
2024/01/15 02:33:08;;;;;;;0.83;0.83;;;-6.40;99.90;;;;;;5015187;28;20205;-80
2024/01/15 02:35:36;;;;;;;0.90;0.90;;;-6.40;99.90;;;;;;5015221;28;20297;-80
2024/01/15 02:38:05;;;;;;;1.00;1.00;;;-6.50;99.90;;;;;;5032506;28;20218;-79
2024/01/15 02:40:31;;;;;;;0.90;0.90;;;-6.50;99.90;;;;;;5032588;28;20532;-80
2024/01/15 02:42:57;;;;;;;0.90;0.90;;;-6.50;99.90;;;;;;5032833;28;20190;-79
2024/01/15 02:45:23;;;;;;;0.87;0.87;;;-6.50;99.90;;;;;;5032379;28;20213;-79
2024/01/15 02:47:49;;;;;;;0.93;0.93;;;-6.50;99.90;;;;;;5032828;28;20272;-80
2024/01/15 02:50:15;;;;;;;0.90;0.90;;;-6.60;99.90;;;;;;5032647;28;20291;-80
2024/01/15 02:52:42;;;;;;;0.90;0.90;;;-6.60;99.90;;;;;;5018176;28;20289;-80
2024/01/15 02:55:08;;;;;;;0.80;0.80;;;-6.60;99.90;;;;;;5036510;28;20217;-80
2024/01/15 02:57:33;;;;;;;0.90;0.90;;;-6.60;99.90;;;;;;5018465;28;20646;-79
2024/01/15 03:00:00;;;;;;;1.00;1.00;;;-6.60;99.90;;;;;;5036301;28;20277;-80
2024/01/15 03:02:25;;;;;;;0.90;0.90;;;-6.60;99.90;;;;;;5036536;28;20194;-80
2024/01/15 03:04:51;;;;;;;0.90;0.90;;;-6.60;99.90;;;;;;5018737;28;20209;-79
2024/01/15 03:07:17;;;;;;;0.97;0.97;;;-6.60;99.90;;;;;;5036018;28;20222;-79
2024/01/15 03:09:42;;;;;;;0.90;0.90;;;-6.60;99.90;;;;;;5018328;28;20229;-81
2024/01/15 03:12:08;;;;;;;1.00;1.00;;;-6.60;99.90;;;;;;5018286;28;20675;-80
2024/01/15 03:14:35;;;;;;;0.90;0.90;;;-6.70;99.90;;;;;;5035546;28;20216;-81
2024/01/15 03:17:00;;;;;;;0.97;0.97;;;-6.70;99.90;;;;;;5018006;28;20203;-80
2024/01/15 03:19:26;;;;;;;0.90;0.90;;;-6.70;99.90;;;;;;5035159;28;20343;-81
2024/01/15 03:21:52;;;;;;;0.90;0.90;;;-6.70;99.90;;;;;;5017781;28;20210;-80
2024/01/15 03:24:17;;;;;;;0.90;0.90;;;-6.80;99.90;;;;;;5018666;28;20289;-80
2024/01/15 03:26:43;;;;;;;0.90;0.90;;;-6.80;99.90;;;;;;5035247;28;20513;-80
2024/01/15 03:29:09;;;;;;;0.90;0.90;;;-6.80;99.90;;;;;;5035573;28;20190;-80
2024/01/15 03:31:35;;;;;;;0.90;0.90;;;-6.90;99.90;;;;;;5035772;28;20202;-80
2024/01/15 03:34:00;;;;;;;0.90;0.90;;;-6.90;99.90;;;;;;5035503;28;20555;-80
2024/01/15 03:36:26;;;;;;;0.93;0.93;;;-6.90;99.90;;;;;;5035346;28;20712;-80
2024/01/15 03:38:52;;;;;;;0.80;0.80;;;-6.90;99.90;;;;;;5035444;28;20206;-80
2024/01/15 03:41:17;;;;;;;1.00;1.00;;;-6.90;99.90;;;;;;5017536;28;20293;-80
2024/01/15 03:43:43;;;;;;;0.73;0.73;;;-7.00;99.90;;;;;;5017003;28;20245;-80
2024/01/15 03:46:09;;;;;;;0.90;0.90;;;-6.90;99.90;;;;;;5017376;28;20221;-81
2024/01/15 03:48:34;;;;;;;0.90;0.90;;;-7.00;99.90;;;;;;5034822;28;20690;-81
2024/01/15 03:51:00;;;;;;;0.90;0.90;;;-7.00;99.90;;;;;;5035276;28;20669;-80
2024/01/15 03:53:26;;;;;;;0.90;0.90;;;-7.00;99.90;;;;;;5034924;28;20214;-80
2024/01/15 03:55:52;;;;;;;0.90;0.90;;;-7.00;99.90;;;;;;5035149;28;20209;-81
2024/01/15 03:58:18;;;;;;;0.93;0.93;;;-7.00;99.90;;;;;;5034888;28;20677;-80
2024/01/15 04:00:43;;;;;;;0.90;0.90;;;-7.00;99.90;;;;;;5029436;28;20234;-80
2024/01/15 04:03:09;;;;;;;0.90;0.90;;;-7.10;99.90;;;;;;5030762;28;20206;-80
2024/01/15 04:05:35;;;;;;;0.97;0.97;;;-7.10;99.90;;;;;;5034757;28;20202;-80
2024/01/15 04:08:01;;;;;;;0.90;0.90;;;-7.10;99.90;;;;;;5017249;28;20206;-79
2024/01/15 04:10:26;;;;;;;0.90;0.90;;;-7.10;99.90;;;;;;5034703;28;20242;-80
2024/01/15 04:12:52;;;;;;;1.00;1.00;;;-7.10;99.90;;;;;;5034792;28;20202;-80
2024/01/15 04:15:18;;;;;;;0.70;0.70;;;-7.20;99.90;;;;;;5034574;28;20198;-79
2024/01/15 04:17:44;;;;;;;1.00;1.00;;;-7.20;99.90;;;;;;5016778;28;20305;-78
2024/01/15 04:20:10;;;;;;;1.00;1.00;;;-7.20;99.90;;;;;;5044114;28;20229;-79
2024/01/15 04:22:37;;;;;;;0.87;0.87;;;-7.20;99.90;;;;;;5054255;28;20197;-80
2024/01/15 04:25:03;;;;;;;0.90;0.90;;;-7.20;99.90;;;;;;5036626;28;20280;-81
2024/01/15 04:27:29;;;;;;;0.90;0.90;;;-7.20;99.90;;;;;;5054251;28;20293;-78
2024/01/15 04:29:55;;;;;;;0.90;0.90;;;-7.20;99.90;;;;;;5054339;28;20201;-78
2024/01/15 04:32:20;;;;;;;0.90;0.90;;;-7.30;99.90;;;;;;5036474;28;20198;-79
2024/01/15 04:34:46;;;;;;;0.90;0.90;;;-7.30;99.90;;;;;;5054224;28;20194;-80
2024/01/15 04:37:13;;;;;;;0.87;0.87;;;-7.30;99.90;;;;;;5054180;28;20190;-81
2024/01/15 04:39:39;;;;;;;0.97;0.97;;;-7.40;99.90;;;;;;5054121;28;20276;-79
2024/01/15 04:42:05;;;;;;;1.00;1.00;;;-7.40;99.90;;;;;;5054162;28;20301;-80
2024/01/15 04:44:30;;;;;;;1.00;1.00;;;-7.40;99.90;;;;;;5054142;28;20201;-80
2024/01/15 04:46:56;;;;;;;1.00;1.00;;;-7.50;99.90;;;;;;5054041;28;20210;-80
2024/01/15 04:49:22;;;;;;;0.83;0.83;;;-7.60;99.90;;;;;;5053539;28;20196;-81
2024/01/15 04:51:47;;;;;;;1.00;1.00;;;-7.60;99.90;;;;;;5045727;28;20610;-79
2024/01/15 04:54:17;;;;;;;0.90;0.90;;;-7.60;99.90;;;;;;5016375;28;20198;-79
2024/01/15 04:56:43;;;;;;;0.80;0.80;;;-7.70;99.90;;;;;;5039710;28;20221;-79
2024/01/15 04:59:09;;;;;;;0.90;0.90;;;-7.70;99.90;;;;;;5040161;28;20552;-80
2024/01/15 05:01:35;;;;;;;1.00;1.00;;;-7.80;99.90;;;;;;5040861;28;20194;-79
2024/01/15 05:04:01;;;;;;;1.03;1.03;;;-7.90;99.90;;;;;;5042504;28;20209;-79
2024/01/15 05:06:27;;;;;;;0.90;0.90;;;-7.90;99.90;;;;;;5028435;28;20214;-78
2024/01/15 05:08:52;;;;;;;0.90;0.90;;;-8.00;99.90;;;;;;5047311;28;20221;-78
2024/01/15 05:11:18;;;;;;;0.90;0.90;;;-8.10;99.90;;;;;;5048545;28;20222;-78
2024/01/15 05:13:44;;;;;;;1.00;1.00;;;-8.10;99.90;;;;;;5047198;28;20230;-75
2024/01/15 05:16:09;;;;;;;1.00;1.00;;;-8.20;99.90;;;;;;5034603;28;20224;-79
2024/01/15 05:18:37;;;;;;;0.90;0.90;;;-8.30;99.90;;;;;;5065445;28;20193;-77
2024/01/15 05:21:03;;;;;;;0.90;0.90;;;-8.30;99.90;;;;;;5054607;28;20542;-77
2024/01/15 05:23:31;;;;;;;0.90;0.90;;;-8.40;99.90;;;;;;5035996;28;20333;-77
2024/01/15 05:25:57;;;;;;;1.00;1.00;;;-8.50;99.90;;;;;;5054193;28;20231;-79
2024/01/15 05:28:22;;;;;;;0.90;0.90;;;-8.50;99.90;;;;;;5053684;28;20189;-79
2024/01/15 05:30:50;;;;;;;0.90;0.90;;;-8.60;99.90;;;;;;5054152;28;20228;-78
2024/01/15 05:33:16;;;;;;;1.00;1.00;;;-8.70;99.90;;;;;;5053335;28;20186;-79
2024/01/15 05:35:42;;;;;;;0.90;0.90;;;-8.80;99.90;;;;;;5053268;28;20223;-78
2024/01/15 05:38:07;;;;;;;0.90;0.90;;;-8.80;99.90;;;;;;5035448;28;20244;-78
2024/01/15 05:40:33;;;;;;;0.90;0.90;;;-8.90;99.90;;;;;;5035247;28;20261;-79
2024/01/15 05:42:59;;;;;;;1.00;1.00;;;-9.00;99.90;;;;;;5053648;28;20189;-79
2024/01/15 05:45:26;;;;;;;0.93;0.93;;;-9.00;99.90;;;;;;5035191;28;20263;-78
2024/01/15 05:47:52;;;;;;;0.90;0.90;;;-9.10;99.90;;;;;;5046566;28;21051;-78
2024/01/15 05:50:18;;;;;;;0.97;0.97;;;-9.10;99.90;;;;;;5015341;28;20289;-78
2024/01/15 05:52:44;;;;;;;0.90;0.90;;;-9.20;99.90;;;;;;5015535;28;20279;-78
2024/01/15 05:55:09;;;;;;;0.90;0.90;;;-9.30;99.90;;;;;;5033127;28;20197;-78
2024/01/15 05:57:37;;;;;;;1.00;1.00;;;-9.40;99.90;;;;;;5032855;28;20194;-79
2024/01/15 06:00:04;;;;;;;1.00;1.00;;;-9.40;99.90;;;;;;5032993;28;20688;-79
2024/01/15 06:02:29;;;;;;;0.93;0.93;;;-9.40;99.90;;;;;;5032906;28;20256;-79
2024/01/15 06:04:55;;;;;;;0.90;0.90;;;-9.50;99.90;;;;;;5015421;28;20195;-78
2024/01/15 06:07:21;;;;;;;0.90;0.90;;;-9.50;99.90;;;;;;5032781;28;20245;-78
2024/01/15 06:09:46;;;;;;;0.90;0.90;;;-9.60;99.90;;;;;;5014821;28;20222;-78
2024/01/15 06:12:12;;;;;;;0.90;0.90;;;-9.60;99.90;;;;;;5032787;28;20198;-78
2024/01/15 06:14:38;;;;;;;0.90;0.90;;;-9.70;99.90;;;;;;5032729;28;20194;-78
2024/01/15 06:17:03;;;;;;;1.00;1.00;;;-9.70;99.90;;;;;;5033068;28;20190;-78
2024/01/15 06:19:29;;;;;;;0.97;0.97;;;-9.70;99.90;;;;;;5031135;28;20198;-78
2024/01/15 06:21:55;;;;;;;0.90;0.90;;;-9.70;99.90;;;;;;5032687;28;20209;-78
2024/01/15 06:24:20;;;;;;;0.90;0.90;;;-9.70;99.90;;;;;;5032547;28;20201;-78
2024/01/15 06:26:47;;;;;;;0.90;0.90;;;-9.80;99.90;;;;;;5034984;28;20205;-78
2024/01/15 06:29:13;;;;;;;1.00;1.00;;;-9.80;99.90;;;;;;5036907;28;20194;-79
2024/01/15 06:31:38;;;;;;;0.90;0.90;;;-9.80;99.90;;;;;;5035608;28;20264;-78
2024/01/15 06:34:04;;;;;;;0.90;0.90;;;-9.80;99.90;;;;;;5036868;28;20572;-78
2024/01/15 06:36:30;;;;;;;0.90;0.90;;;-9.90;99.90;;;;;;5036568;28;20273;-79
2024/01/15 06:38:56;;;;;;;0.93;0.93;;;-9.90;99.90;;;;;;5036855;28;20224;-79
2024/01/15 06:41:21;;;;;;;0.90;0.90;;;-9.90;99.90;;;;;;5035225;28;20700;-79
2024/01/15 06:43:48;;;;;;;1.00;1.00;;;-9.90;99.90;;;;;;5036385;28;20246;-79
2024/01/15 06:46:23;;;;;;;0.90;0.90;;;-9.90;99.90;;;;;;5036464;28;20297;-79
2024/01/15 06:48:49;;;;;;;1.00;1.00;;;-9.90;99.90;;;;;;5035041;28;20193;-79
2024/01/15 06:51:16;;;;;;;1.00;1.00;;;-9.90;99.90;;;;;;5018771;28;20260;-81
2024/01/15 06:53:41;;;;;;;1.00;1.00;;;-10.00;99.90;;;;;;5018413;28;20218;-78
2024/01/15 06:56:07;;;;;;;0.90;0.90;;;-10.00;99.90;;;;;;5036431;28;20237;-78
2024/01/15 06:58:33;;;;;;;0.93;0.93;;;-10.00;99.90;;;;;;5036096;28;20205;-80
2024/01/15 07:00:59;;;;;;;2.20;1.77;;;-10.00;99.90;;;;;;5018322;28;20267;-80
2024/01/15 07:03:25;;;;;;;0.90;0.90;;;-10.00;99.90;;;;;;5035843;28;20750;-78
2024/01/15 07:05:51;;;;;;;1.00;1.00;;;-10.00;99.90;;;;;;5036158;28;20210;-79
2024/01/15 07:08:16;;;;;;;1.00;1.00;;;-10.10;99.90;;;;;;5017688;28;20285;-79
2024/01/15 07:10:42;;;;;;;1.00;1.00;;;-10.10;99.90;;;;;;5035907;28;20260;-79
2024/01/15 07:13:09;;;;;;;1.00;1.00;;;-10.10;99.90;;;;;;5018290;28;20226;-80
2024/01/15 07:15:34;;;;;;;0.90;0.90;;;-10.20;99.90;;;;;;5035701;28;20658;-79
2024/01/15 07:18:00;;;;;;;0.97;0.97;;;-10.20;99.90;;;;;;5035830;28;20220;-79
2024/01/15 07:20:25;;;;;;;4.60;1.87;;;-10.20;99.90;;;;;;5017496;28;20209;-79
2024/01/15 07:22:51;;;;;;;1.03;1.03;;;-10.20;99.90;;;;;;5035707;28;20198;-78
2024/01/15 07:25:17;;;;;;;1.00;1.00;;;-10.20;99.90;;;;;;5035478;28;20203;-79
2024/01/15 07:27:44;;;;;;;1.10;1.10;;;-10.20;99.90;;;;;;5035556;28;20194;-79
2024/01/15 07:30:11;;;;;;;1.00;1.00;;;-10.30;99.90;;;;;;5035682;28;20800;-79
2024/01/15 07:32:37;;;;;;;1.10;1.10;;;-10.30;99.90;;;;;;5035442;28;20268;-79
2024/01/15 07:35:03;;;;;;;0.90;0.90;;;-10.40;99.90;;;;;;5017803;28;20194;-79
2024/01/15 07:37:29;;;;;;;0.90;0.90;;;-10.40;99.90;;;;;;5034315;28;20197;-78
2024/01/15 07:39:54;;;;;;;0.90;0.90;;;-10.40;99.90;;;;;;5035327;28;20203;-78
2024/01/15 07:42:20;;;;;;;1.00;1.00;;;-10.40;99.90;;;;;;5035043;28;20248;-79
2024/01/15 07:44:46;;;;;;;0.90;0.90;;;-10.40;99.90;;;;;;5035315;28;20205;-79
2024/01/15 07:47:12;;;;;;;0.90;0.90;;;-10.40;99.90;;;;;;5035150;28;20202;-79
2024/01/15 07:49:38;;;;;;;0.90;0.90;;;-10.50;99.90;;;;;;5017431;28;20256;-79
2024/01/15 07:52:05;;;;;;;0.93;0.93;;;-10.50;99.90;;;;;;5035474;28;20589;-79
2024/01/15 07:54:31;;;;;;;0.90;0.90;;;-10.50;99.90;;;;;;5035306;28;20183;-78
2024/01/15 07:56:58;;;;;;;0.90;0.90;;;-10.50;99.90;;;;;;5017530;28;20646;-78
2024/01/15 07:59:24;;;;;;;0.90;0.90;;;-10.50;99.90;;;;;;5034880;28;20688;-78
2024/01/15 08:01:51;;;;;;;1.00;1.00;;;-10.60;99.90;;;;;;5035179;28;20190;-77
2024/01/15 08:04:17;;;;;;;0.90;0.90;;;-10.60;99.90;;;;;;5037748;28;20666;-79
2024/01/15 08:06:42;;;;;;;0.90;0.90;;;-10.60;99.90;;;;;;5054752;28;20216;-79
2024/01/15 08:09:08;;;;;;;1.00;1.00;;;-10.60;99.90;;;;;;5054754;28;20576;-80
2024/01/15 08:11:34;;;;;;;1.07;1.03;;;-10.60;99.90;;;;;;5054674;28;20186;-79
2024/01/15 08:14:00;;;;;;;0.90;0.90;;;-10.60;99.90;;;;;;5036934;28;20194;-80
2024/01/15 08:16:27;;;;;;;0.90;0.90;;;-10.60;99.90;;;;;;5036755;28;20610;-79
2024/01/15 08:18:53;;;;;;;0.90;0.90;;;-10.70;99.90;;;;;;5036851;28;20209;-79
2024/01/15 08:21:19;;;;;;;0.90;0.90;;;-10.70;99.90;;;;;;5054410;28;20205;-79
2024/01/15 08:23:45;;;;;;;0.90;0.90;;;-10.60;99.90;;;;;;5037432;28;20210;-78
2024/01/15 08:26:11;;;;;;;1.30;1.23;;;-10.60;99.90;;;;;;5014905;28;20519;-80
2024/01/15 08:28:37;;;;;;;1.10;1.10;;;-10.60;99.90;;;;;;4997136;28;20209;-79
2024/01/15 08:31:02;;;;;;;0.90;0.90;;;-10.60;99.90;;;;;;5015248;28;20580;-81
2024/01/15 08:33:29;;;;;;;1.00;1.00;;;-10.60;99.90;;;;;;4997214;28;20530;-79
2024/01/15 08:35:55;;;;;;;1.10;1.10;;;-10.60;99.90;;;;;;5015571;28;20653;-79
2024/01/15 08:38:20;;;;;;;0.90;0.90;;;-10.60;99.90;;;;;;5016559;28;20205;-79
2024/01/15 08:40:47;;;;;;;0.90;0.90;;;-10.60;99.90;;;;;;5016712;28;20205;-79
2024/01/15 08:43:12;;;;;;;1.00;1.00;;;-10.60;99.90;;;;;;5034483;28;20195;-79
2024/01/15 08:45:38;;;;;;;1.00;1.00;;;-10.70;99.90;;;;;;5034302;28;20249;-79
2024/01/15 08:48:04;;;;;;;0.90;0.90;;;-10.70;99.90;;;;;;5034382;28;20252;-79
2024/01/15 08:50:32;;;;;;;0.90;0.90;;;-10.70;99.90;;;;;;5016168;28;20194;-79
2024/01/15 08:52:58;;;;;;;0.90;0.90;;;-10.70;99.90;;;;;;5016543;28;20186;-79
2024/01/15 08:55:23;;;;;;;0.93;0.93;;;-10.70;99.90;;;;;;5033995;28;20536;-81
2024/01/15 08:57:50;;;;;;;0.90;0.90;;;-10.70;99.90;;;;;;5016499;28;20194;-80
2024/01/15 09:00:16;;;;;;;0.90;0.90;;;-10.70;99.90;;;;;;5033926;28;20190;-80
2024/01/15 09:02:42;;;;;;;0.90;0.90;;;-10.70;99.90;;;;;;5033904;28;20198;-78
2024/01/15 09:05:08;;;;;;;0.90;0.90;;;-10.70;99.90;;;;;;5034043;28;20194;-79
2024/01/15 09:07:34;;;;;;;1.03;1.03;;;-10.70;99.90;;;;;;5033955;28;20202;-79
2024/01/15 09:09:59;;;;;;;0.90;0.90;;;-10.70;99.90;;;;;;5016276;28;20542;-79
2024/01/15 09:12:29;;;;;;;2.03;1.90;;;-10.80;99.90;;;;;;5015886;28;20195;-79
2024/01/15 09:14:55;;;;;;;0.90;0.90;;;-10.70;99.90;;;;;;5016170;28;20222;-79
2024/01/15 09:17:23;;;;;;;1.07;1.07;;;-10.70;99.90;;;;;;5015910;28;20329;-79
2024/01/15 09:19:49;;;;;;;0.90;0.90;;;-10.70;99.90;;;;;;5015863;28;20268;-78
2024/01/15 09:22:18;;;;;;;0.90;0.90;;;-10.80;99.90;;;;;;5033769;28;20259;-78
2024/01/15 09:24:44;;;;;;;1.00;1.00;;;-10.80;99.90;;;;;;5033674;28;20201;-79
2024/01/15 09:27:10;;;;;;;1.00;1.00;;;-10.80;99.90;;;;;;5034186;28;20292;-78
2024/01/15 09:29:39;;;;;;;1.00;1.00;;;-10.80;99.90;;;;;;5034379;28;20224;-77
2024/01/15 09:32:07;;;;;;;0.90;0.90;;;-10.80;99.90;;;;;;5016685;28;20281;-80
2024/01/15 09:34:33;;;;;;;1.00;1.00;;;-10.80;99.90;;;;;;5033684;28;20194;-78
2024/01/15 09:36:59;;;;;;;0.90;0.90;;;-10.80;99.90;;;;;;5015755;28;20586;-78
2024/01/15 09:39:26;;;;;;;0.90;0.90;;;-10.80;99.90;;;;;;5033285;28;20198;-77
2024/01/15 09:41:53;;;;;;;1.00;1.00;;;-10.80;99.90;;;;;;5033178;28;20249;-77
2024/01/15 09:44:19;;;;;;;1.33;1.23;;;-10.80;99.90;;;;;;5033434;28;20202;-78
2024/01/15 09:46:46;;;;;;;0.90;0.90;;;-10.80;99.90;;;;;;5015795;28;20555;-78
2024/01/15 09:49:12;;;;;;;1.00;1.00;;;-10.80;99.90;;;;;;5033473;28;20244;-77
2024/01/15 09:51:39;;;;;;;1.00;1.00;;;-10.80;99.90;;;;;;5033288;28;20190;-77
2024/01/15 09:54:05;;;;;;;0.90;0.90;;;-10.80;99.90;;;;;;5015701;28;20192;-77
2024/01/15 09:56:31;;;;;;;1.00;1.00;;;-10.80;99.90;;;;;;5032823;28;20211;-78
2024/01/15 09:58:57;;;;;;;0.90;0.90;;;-10.80;99.90;;;;;;5031879;28;20202;-78
2024/01/15 10:01:24;;;;;;;0.90;0.90;;;-10.90;99.90;;;;;;5031773;28;20190;-77
2024/01/15 10:03:52;;;;;;;0.87;0.87;;;-10.80;99.90;;;;;;5033361;28;20560;-77
2024/01/15 10:06:21;;;;;;;0.90;0.90;;;-10.80;99.90;;;;;;5032721;28;20202;-78
2024/01/15 10:08:51;;;;;;;0.97;0.97;;;-10.80;99.90;;;;;;5031398;28;20629;-77
2024/01/15 10:11:17;;;;;;;0.90;0.90;;;-10.70;99.90;;;;;;5039428;28;20226;-78
2024/01/15 10:13:52;;;;;;;0.90;0.90;;;-10.70;99.90;;;;;;5057153;28;20181;-79
2024/01/15 10:16:19;;;;;;;0.90;0.90;;;-10.60;99.90;;;;;;5057398;28;20174;-79
2024/01/15 10:18:44;;;;;;;0.90;0.90;;;-10.60;99.90;;;;;;5056942;28;20261;-78
2024/01/15 10:21:10;;;;;;;0.90;0.90;;;-10.60;99.90;;;;;;5056736;28;20213;-80
2024/01/15 10:23:36;;;;;;;0.90;0.90;;;-10.50;99.90;;;;;;5056793;28;20202;-77
2024/01/15 10:26:02;;;;;;;0.93;0.93;;;-10.50;99.90;;;;;;5057238;28;20194;-79
2024/01/15 10:28:30;;;;;;;0.90;0.90;;;-10.50;99.90;;;;;;5053715;28;20224;-78
2024/01/15 10:30:57;;;;;;;0.90;0.90;;;-10.50;99.90;;;;;;5053960;28;20254;-77
2024/01/15 10:33:26;;;;;;;0.90;0.90;;;-10.50;99.90;;;;;;5053024;28;20779;-78
2024/01/15 10:35:56;;;;;;;1.00;1.00;;;-10.50;99.90;;;;;;5037677;28;20198;-77
2024/01/15 10:38:23;;;;;;;0.90;0.90;;;-10.50;99.90;;;;;;5035016;28;20722;-78
2024/01/15 10:40:56;;;;;;;0.90;0.90;;;-10.40;99.90;;;;;;5033802;28;20186;-78
2024/01/15 10:43:22;;;;;;;0.90;0.90;;;-10.40;99.90;;;;;;5031587;28;20568;-78
2024/01/15 10:45:49;;;;;;;0.90;0.90;;;-10.40;99.90;;;;;;5032728;28;20329;-77
2024/01/15 10:48:17;;;;;;;1.00;1.00;;;-10.30;99.90;;;;;;5031432;28;20592;-78
2024/01/15 10:50:47;;;;;;;1.00;1.00;;;-10.30;99.90;;;;;;5032691;28;20273;-78
2024/01/15 10:53:15;;;;;;;0.90;0.90;;;-10.30;99.90;;;;;;5030146;28;20237;-78
2024/01/15 10:55:42;;;;;;;2.10;1.93;;;-10.30;99.90;;;;;;5031440;28;20320;-77
2024/01/15 10:58:09;;;;;;;0.80;0.80;;;-10.20;99.90;;;;;;5032760;28;20658;-77
2024/01/15 11:00:38;;;;;;;0.90;0.90;;;-10.20;99.90;;;;;;5031174;28;20198;-78
2024/01/15 11:03:06;;;;;;;0.90;0.90;;;-10.20;99.90;;;;;;5031403;28;20198;-78
2024/01/15 11:05:44;;;;;;;0.93;0.93;;;-10.20;99.90;;;;;;5032199;28;20287;-78
2024/01/15 11:08:13;;;;;;;1.00;1.00;;;-10.10;99.90;;;;;;5032489;28;20202;-78
2024/01/15 11:10:41;;;;;;;0.90;0.90;;;-10.10;99.90;;;;;;5030933;28;20698;-77
2024/01/15 11:13:32;;;;;;;0.90;0.90;;;-10.10;99.90;;;;;;5034927;28;20281;-78
2024/01/15 11:16:02;;;;;;;0.90;0.90;;;-10.00;99.90;;;;;;5025500;28;20259;-77
2024/01/15 11:18:34;;;;;;;1.00;1.00;;;-10.00;99.90;;;;;;5036063;28;20287;-77
2024/01/15 11:21:15;;;;;;;1.00;1.00;;;-10.00;99.90;;;;;;5034814;28;20340;-79
2024/01/15 11:23:46;;;;;;;1.10;1.10;;;-9.90;99.90;;;;;;5035683;28;20285;-78
2024/01/15 11:26:34;;;;;;;0.90;0.90;;;-9.90;99.90;;;;;;5035677;28;20209;-77
2024/01/15 11:29:03;;;;;;;1.00;1.00;;;-9.90;99.90;;;;;;5018160;28;20206;-79
2024/01/15 11:31:40;;;;;;;0.93;0.93;;;-9.90;99.90;;;;;;5017746;28;20244;-78
2024/01/15 11:34:10;;;;;;;1.00;1.00;;;-9.80;99.90;;;;;;5017904;28;20200;-78
2024/01/15 11:36:45;;;;;;;1.00;1.00;;;-9.80;99.90;;;;;;5017839;28;20255;-78
2024/01/15 11:39:43;;;;;;;0.97;0.97;;;-9.80;99.90;;;;;;5035540;28;20198;-77
2024/01/15 11:42:11;;;;;;;0.80;0.80;;;-9.80;99.90;;;;;;5023997;28;20704;-77
2024/01/15 11:44:38;;;;;;;0.90;0.90;;;-9.70;99.90;;;;;;5035288;28;20198;-77
2024/01/15 11:47:14;;;;;;;1.00;1.00;;;-9.70;99.90;;;;;;5035416;28;20264;-77
2024/01/15 11:49:58;;;;;;;0.90;0.90;;;-9.70;99.90;;;;;;5034986;28;20289;-77
2024/01/15 11:52:24;;;;;;;0.97;0.97;;;-9.70;99.90;;;;;;5017718;28;20206;-78
2024/01/15 11:55:22;;;;;;;0.90;0.90;;;-9.70;99.90;;;;;;5017737;28;20206;-78
2024/01/15 11:57:51;;;;;;;1.00;1.00;;;-9.70;99.90;;;;;;5035236;28;20186;-77
2024/01/15 12:00:17;;;;;;;0.90;0.90;;;-9.70;99.90;;;;;;5035147;28;20213;-78
2024/01/15 12:02:45;;;;;;;1.00;1.00;;;-9.70;99.90;;;;;;5017403;28;20542;-77
2024/01/15 12:05:15;;;;;;;0.90;0.90;;;-9.70;99.90;;;;;;5034999;28;20201;-78
2024/01/15 12:07:41;;;;;;;1.00;1.00;;;-9.70;99.90;;;;;;5017112;28;20214;-77
2024/01/15 12:10:11;;;;;;;0.90;0.90;;;-9.60;99.90;;;;;;5034847;28;20271;-77
2024/01/15 12:12:43;;;;;;;1.00;1.00;;;-9.70;99.90;;;;;;5034551;28;20194;-78
2024/01/15 12:15:09;;;;;;;0.90;0.90;;;-9.70;99.90;;;;;;5034892;28;20248;-77
2024/01/15 12:17:36;;;;;;;1.00;1.00;;;-9.60;99.90;;;;;;5034722;28;20654;-77
2024/01/15 12:20:03;;;;;;;0.90;0.90;;;-9.60;99.90;;;;;;5034848;28;20652;-77
2024/01/15 12:22:29;;;;;;;0.90;0.90;;;-9.60;99.90;;;;;;5034508;28;20759;-78
2024/01/15 12:24:54;;;;;;;0.90;0.90;;;-9.60;99.90;;;;;;5034097;28;20195;-78
2024/01/15 12:27:21;;;;;;;0.90;0.90;;;-9.60;99.90;;;;;;5034293;28;20210;-78
2024/01/15 12:29:47;;;;;;;0.90;0.90;;;-9.60;99.90;;;;;;5016888;28;20544;-78
2024/01/15 12:32:13;;;;;;;1.00;1.00;;;-9.60;99.90;;;;;;5034809;28;20214;-77
2024/01/15 12:34:38;;;;;;;0.90;0.90;;;-9.60;99.90;;;;;;5034446;28;20205;-78
2024/01/15 12:37:04;;;;;;;0.90;0.90;;;-9.60;99.90;;;;;;5034443;28;20198;-77
2024/01/15 12:39:30;;;;;;;1.00;1.00;;;-9.60;99.90;;;;;;5016714;28;20203;-77
2024/01/15 12:41:55;;;;;;;1.20;1.20;;;-9.60;99.90;;;;;;5034663;28;20202;-77